sensor_id;sensor_type;location;lat;lon;timestamp;pressure;altitude;pressure_sealevel;temperature;humidity
78719;BME280;68046;53.334;9.538;2024-02-26T00:01:46;100126.06;;;1.92;100.00
78719;BME280;68046;53.334;9.538;2024-02-26T00:04:12;100128.06;;;1.97;100.00
78719;BME280;68046;53.334;9.538;2024-02-26T00:06:39;100131.78;;;1.85;100.00
78719;BME280;68046;53.334;9.538;2024-02-26T00:09:04;100125.66;;;1.82;100.00
78719;BME280;68046;53.334;9.538;2024-02-26T00:11:30;100126.97;;;1.92;100.00
78719;BME280;68046;53.334;9.538;2024-02-26T00:13:56;100124.59;;;1.97;100.00
78719;BME280;68046;53.334;9.538;2024-02-26T00:16:21;100129.69;;;1.95;100.00
78719;BME280;68046;53.334;9.538;2024-02-26T00:18:47;100124.88;;;1.83;100.00
78719;BME280;68046;53.334;9.538;2024-02-26T00:21:12;100129.13;;;1.83;100.00
78719;BME280;68046;53.334;9.538;2024-02-26T00:23:39;100130.41;;;1.73;100.00
78719;BME280;68046;53.334;9.538;2024-02-26T00:26:05;100126.47;;;1.81;100.00
78719;BME280;68046;53.334;9.538;2024-02-26T00:28:30;100121.72;;;1.91;100.00
78719;BME280;68046;53.334;9.538;2024-02-26T00:30:56;100122.19;;;2.01;100.00
78719;BME280;68046;53.334;9.538;2024-02-26T00:33:22;100123.56;;;1.93;100.00
78719;BME280;68046;53.334;9.538;2024-02-26T00:35:47;100125.66;;;1.82;100.00
78719;BME280;68046;53.334;9.538;2024-02-26T00:38:13;100120.19;;;1.76;100.00
78719;BME280;68046;53.334;9.538;2024-02-26T00:40:40;100117.69;;;1.78;100.00
78719;BME280;68046;53.334;9.538;2024-02-26T00:43:05;100112.84;;;1.66;100.00
78719;BME280;68046;53.334;9.538;2024-02-26T00:45:32;100117.00;;;1.63;100.00
78719;BME280;68046;53.334;9.538;2024-02-26T00:47:57;100122.66;;;1.37;100.00
78719;BME280;68046;53.334;9.538;2024-02-26T00:50:23;100133.69;;;1.33;100.00
78719;BME280;68046;53.334;9.538;2024-02-26T00:52:48;100116.72;;;1.39;100.00
78719;BME280;68046;53.334;9.538;2024-02-26T00:55:14;100116.47;;;1.52;100.00
78719;BME280;68046;53.334;9.538;2024-02-26T00:57:41;100116.78;;;1.40;100.00
78719;BME280;68046;53.334;9.538;2024-02-26T01:00:07;100120.22;;;1.23;100.00
78719;BME280;68046;53.334;9.538;2024-02-26T01:02:33;100115.31;;;1.27;100.00
78719;BME280;68046;53.334;9.538;2024-02-26T01:04:58;100123.78;;;1.43;100.00
78719;BME280;68046;53.334;9.538;2024-02-26T01:07:24;100121.56;;;1.50;100.00
78719;BME280;68046;53.334;9.538;2024-02-26T01:09:49;100119.06;;;1.52;100.00
78719;BME280;68046;53.334;9.538;2024-02-26T01:12:15;100116.25;;;1.47;100.00
78719;BME280;68046;53.334;9.538;2024-02-26T01:14:41;100122.75;;;1.57;100.00
78719;BME280;68046;53.334;9.538;2024-02-26T01:17:07;100119.19;;;1.55;100.00
78719;BME280;68046;53.334;9.538;2024-02-26T01:19:32;100120.47;;;1.27;100.00
78719;BME280;68046;53.334;9.538;2024-02-26T01:21:58;100119.19;;;1.19;100.00
78719;BME280;68046;53.334;9.538;2024-02-26T01:24:23;100124.81;;;1.10;100.00
78719;BME280;68046;53.334;9.538;2024-02-26T01:26:49;100120.81;;;1.17;100.00
78719;BME280;68046;53.334;9.538;2024-02-26T01:29:14;100121.72;;;1.35;100.00
78719;BME280;68046;53.334;9.538;2024-02-26T01:31:41;100115.22;;;1.44;100.00
78719;BME280;68046;53.334;9.538;2024-02-26T01:34:07;100118.75;;;1.46;100.00
78719;BME280;68046;53.334;9.538;2024-02-26T01:36:32;100115.31;;;1.45;100.00
78719;BME280;68046;53.334;9.538;2024-02-26T01:38:58;100125.69;;;1.47;100.00
78719;BME280;68046;53.334;9.538;2024-02-26T01:41:23;100121.41;;;1.47;100.00
78719;BME280;68046;53.334;9.538;2024-02-26T01:43:49;100119.66;;;1.46;100.00
78719;BME280;68046;53.334;9.538;2024-02-26T01:46:14;100116.91;;;1.43;100.00
78719;BME280;68046;53.334;9.538;2024-02-26T01:48:43;100115.94;;;1.23;100.00
78719;BME280;68046;53.334;9.538;2024-02-26T01:51:10;100123.06;;;0.93;100.00
78719;BME280;68046;53.334;9.538;2024-02-26T01:53:37;100127.16;;;0.88;100.00
78719;BME280;68046;53.334;9.538;2024-02-26T01:56:04;100120.28;;;0.88;100.00
78719;BME280;68046;53.334;9.538;2024-02-26T01:58:30;100126.75;;;0.80;100.00
78719;BME280;68046;53.334;9.538;2024-02-26T02:00:56;100122.13;;;0.91;100.00
78719;BME280;68046;53.334;9.538;2024-02-26T02:03:22;100121.56;;;1.14;100.00
78719;BME280;68046;53.334;9.538;2024-02-26T02:05:49;100122.59;;;1.18;100.00
78719;BME280;68046;53.334;9.538;2024-02-26T02:08:15;100123.53;;;1.20;100.00
78719;BME280;68046;53.334;9.538;2024-02-26T02:10:41;100120.97;;;1.20;100.00
78719;BME280;68046;53.334;9.538;2024-02-26T02:13:07;100124.53;;;1.22;100.00
78719;BME280;68046;53.334;9.538;2024-02-26T02:15:33;100124.59;;;1.24;100.00
78719;BME280;68046;53.334;9.538;2024-02-26T02:17:59;100123.69;;;1.23;100.00
78719;BME280;68046;53.334;9.538;2024-02-26T02:20:26;100130.66;;;1.24;100.00
78719;BME280;68046;53.334;9.538;2024-02-26T02:22:56;100133.25;;;1.24;100.00
78719;BME280;68046;53.334;9.538;2024-02-26T02:25:22;100143.41;;;1.21;100.00
78719;BME280;68046;53.334;9.538;2024-02-26T02:27:47;100140.09;;;1.24;100.00
78719;BME280;68046;53.334;9.538;2024-02-26T02:30:13;100142.91;;;1.28;100.00
78719;BME280;68046;53.334;9.538;2024-02-26T02:32:40;100140.56;;;0.99;100.00
78719;BME280;68046;53.334;9.538;2024-02-26T02:35:06;100141.09;;;0.75;100.00
78719;BME280;68046;53.334;9.538;2024-02-26T02:37:33;100140.00;;;0.70;100.00
78719;BME280;68046;53.334;9.538;2024-02-26T02:39:59;100141.03;;;0.74;100.00
78719;BME280;68046;53.334;9.538;2024-02-26T02:42:24;100138.06;;;0.66;100.00
78719;BME280;68046;53.334;9.538;2024-02-26T02:44:50;100144.53;;;0.58;100.00
78719;BME280;68046;53.334;9.538;2024-02-26T02:47:15;100127.63;;;0.47;100.00
78719;BME280;68046;53.334;9.538;2024-02-26T02:49:41;100135.97;;;0.59;100.00
78719;BME280;68046;53.334;9.538;2024-02-26T02:52:06;100140.94;;;0.72;100.00
78719;BME280;68046;53.334;9.538;2024-02-26T02:54:33;100143.50;;;0.88;100.00
78719;BME280;68046;53.334;9.538;2024-02-26T02:56:58;100141.97;;;0.92;100.00
78719;BME280;68046;53.334;9.538;2024-02-26T02:59:24;100143.00;;;0.96;100.00
78719;BME280;68046;53.334;9.538;2024-02-26T03:01:50;100148.69;;;0.88;100.00
78719;BME280;68046;53.334;9.538;2024-02-26T03:04:15;100142.34;;;0.65;100.00
78719;BME280;68046;53.334;9.538;2024-02-26T03:06:41;100150.00;;;0.64;100.00
78719;BME280;68046;53.334;9.538;2024-02-26T03:09:06;100159.00;;;0.72;100.00
78719;BME280;68046;53.334;9.538;2024-02-26T03:11:33;100154.56;;;0.86;100.00
78719;BME280;68046;53.334;9.538;2024-02-26T03:13:59;100154.00;;;0.91;100.00
78719;BME280;68046;53.334;9.538;2024-02-26T03:16:24;100154.31;;;0.63;100.00
78719;BME280;68046;53.334;9.538;2024-02-26T03:18:50;100154.69;;;0.71;100.00
78719;BME280;68046;53.334;9.538;2024-02-26T03:21:15;100160.88;;;0.75;100.00
78719;BME280;68046;53.334;9.538;2024-02-26T03:23:41;100164.50;;;0.78;100.00
78719;BME280;68046;53.334;9.538;2024-02-26T03:26:06;100164.84;;;0.68;100.00
78719;BME280;68046;53.334;9.538;2024-02-26T03:28:33;100161.13;;;0.63;100.00
78719;BME280;68046;53.334;9.538;2024-02-26T03:30:59;100173.72;;;0.73;100.00
78719;BME280;68046;53.334;9.538;2024-02-26T03:33:24;100177.59;;;0.81;100.00
78719;BME280;68046;53.334;9.538;2024-02-26T03:35:50;100179.34;;;0.82;100.00
78719;BME280;68046;53.334;9.538;2024-02-26T03:38:15;100179.81;;;0.75;100.00
78719;BME280;68046;53.334;9.538;2024-02-26T03:40:41;100179.97;;;0.78;100.00
78719;BME280;68046;53.334;9.538;2024-02-26T03:43:06;100185.41;;;0.83;100.00
78719;BME280;68046;53.334;9.538;2024-02-26T03:45:33;100193.22;;;0.84;100.00
78719;BME280;68046;53.334;9.538;2024-02-26T03:47:59;100200.16;;;0.85;100.00
78719;BME280;68046;53.334;9.538;2024-02-26T03:50:24;100204.38;;;0.67;100.00
78719;BME280;68046;53.334;9.538;2024-02-26T03:52:50;100201.53;;;0.62;100.00
78719;BME280;68046;53.334;9.538;2024-02-26T03:55:15;100210.81;;;0.59;100.00
78719;BME280;68046;53.334;9.538;2024-02-26T03:57:41;100212.19;;;0.68;100.00
78719;BME280;68046;53.334;9.538;2024-02-26T04:00:07;100205.56;;;0.74;100.00
78719;BME280;68046;53.334;9.538;2024-02-26T04:02:37;100228.25;;;0.79;100.00
78719;BME280;68046;53.334;9.538;2024-02-26T04:05:03;100219.44;;;0.76;100.00
78719;BME280;68046;53.334;9.538;2024-02-26T04:07:29;100230.34;;;0.70;100.00
78719;BME280;68046;53.334;9.538;2024-02-26T04:09:54;100228.88;;;0.59;100.00
78719;BME280;68046;53.334;9.538;2024-02-26T04:12:20;100234.53;;;0.52;100.00
78719;BME280;68046;53.334;9.538;2024-02-26T04:14:45;100236.28;;;0.53;100.00
78719;BME280;68046;53.334;9.538;2024-02-26T04:17:11;100238.53;;;0.63;100.00
78719;BME280;68046;53.334;9.538;2024-02-26T04:19:38;100241.44;;;0.69;100.00
78719;BME280;68046;53.334;9.538;2024-02-26T04:22:03;100235.34;;;0.67;100.00
78719;BME280;68046;53.334;9.538;2024-02-26T04:24:29;100241.47;;;0.53;100.00
78719;BME280;68046;53.334;9.538;2024-02-26T04:26:54;100243.28;;;0.39;100.00
78719;BME280;68046;53.334;9.538;2024-02-26T04:29:20;100240.16;;;0.28;100.00
78719;BME280;68046;53.334;9.538;2024-02-26T04:31:45;100237.41;;;0.25;100.00
78719;BME280;68046;53.334;9.538;2024-02-26T04:34:11;100231.44;;;0.26;100.00
78719;BME280;68046;53.334;9.538;2024-02-26T04:36:38;100245.31;;;0.28;100.00
78719;BME280;68046;53.334;9.538;2024-02-26T04:39:03;100241.75;;;0.26;100.00
78719;BME280;68046;53.334;9.538;2024-02-26T04:41:29;100256.78;;;0.33;100.00
78719;BME280;68046;53.334;9.538;2024-02-26T04:43:54;100257.09;;;0.39;100.00
78719;BME280;68046;53.334;9.538;2024-02-26T04:46:20;100263.81;;;0.52;100.00
78719;BME280;68046;53.334;9.538;2024-02-26T04:48:45;100261.53;;;0.58;100.00
78719;BME280;68046;53.334;9.538;2024-02-26T04:51:11;100266.16;;;0.64;100.00
78719;BME280;68046;53.334;9.538;2024-02-26T04:53:37;100262.69;;;0.63;100.00
78719;BME280;68046;53.334;9.538;2024-02-26T04:56:04;100265.44;;;0.66;100.00
78719;BME280;68046;53.334;9.538;2024-02-26T04:58:29;100266.06;;;0.46;100.00
78719;BME280;68046;53.334;9.538;2024-02-26T05:00:55;100266.28;;;0.34;100.00
78719;BME280;68046;53.334;9.538;2024-02-26T05:03:20;100269.41;;;0.29;100.00
78719;BME280;68046;53.334;9.538;2024-02-26T05:05:46;100267.31;;;0.38;100.00
78719;BME280;68046;53.334;9.538;2024-02-26T05:08:11;100271.16;;;0.61;100.00
78719;BME280;68046;53.334;9.538;2024-02-26T05:10:38;100272.41;;;0.69;100.00
78719;BME280;68046;53.334;9.538;2024-02-26T05:13:04;100266.47;;;0.70;100.00
78719;BME280;68046;53.334;9.538;2024-02-26T05:15:29;100269.13;;;0.72;100.00
78719;BME280;68046;53.334;9.538;2024-02-26T05:17:55;100280.31;;;0.72;100.00
78719;BME280;68046;53.334;9.538;2024-02-26T05:20:20;100276.06;;;0.73;100.00
78719;BME280;68046;53.334;9.538;2024-02-26T05:22:46;100271.78;;;0.73;100.00
78719;BME280;68046;53.334;9.538;2024-02-26T05:25:11;100276.97;;;0.73;100.00
78719;BME280;68046;53.334;9.538;2024-02-26T05:27:41;100279.38;;;0.70;100.00
78719;BME280;68046;53.334;9.538;2024-02-26T05:30:07;100282.84;;;0.71;100.00
78719;BME280;68046;53.334;9.538;2024-02-26T05:32:33;100296.72;;;0.73;100.00
78719;BME280;68046;53.334;9.538;2024-02-26T05:34:58;100307.06;;;0.73;100.00
78719;BME280;68046;53.334;9.538;2024-02-26T05:37:24;100297.69;;;0.75;100.00
78719;BME280;68046;53.334;9.538;2024-02-26T05:39:49;100287.13;;;0.70;100.00
78719;BME280;68046;53.334;9.538;2024-02-26T05:42:15;100301.56;;;0.66;100.00
78719;BME280;68046;53.334;9.538;2024-02-26T05:44:42;100300.81;;;0.69;100.00
78719;BME280;68046;53.334;9.538;2024-02-26T05:47:07;100301.63;;;0.68;100.00
78719;BME280;68046;53.334;9.538;2024-02-26T05:49:33;100301.56;;;0.66;100.00
78719;BME280;68046;53.334;9.538;2024-02-26T05:51:58;100305.47;;;0.60;100.00
78719;BME280;68046;53.334;9.538;2024-02-26T05:54:23;100303.72;;;0.59;100.00
78719;BME280;68046;53.334;9.538;2024-02-26T05:56:49;100305.66;;;0.63;100.00
78719;BME280;68046;53.334;9.538;2024-02-26T05:59:14;100309.81;;;0.76;100.00
78719;BME280;68046;53.334;9.538;2024-02-26T06:01:41;100303.16;;;0.81;100.00
78719;BME280;68046;53.334;9.538;2024-02-26T06:04:07;100317.00;;;0.81;100.00
78719;BME280;68046;53.334;9.538;2024-02-26T06:06:32;100316.06;;;0.81;100.00
78719;BME280;68046;53.334;9.538;2024-02-26T06:08:58;100311.41;;;0.74;100.00
78719;BME280;68046;53.334;9.538;2024-02-26T06:11:23;100315.19;;;0.80;100.00
78719;BME280;68046;53.334;9.538;2024-02-26T06:13:49;100320.06;;;0.90;100.00
78719;BME280;68046;53.334;9.538;2024-02-26T06:16:14;100327.88;;;1.08;100.00
78719;BME280;68046;53.334;9.538;2024-02-26T06:18:41;100331.03;;;1.03;100.00
78719;BME280;68046;53.334;9.538;2024-02-26T06:21:09;100334.81;;;1.09;100.00
78719;BME280;68046;53.334;9.538;2024-02-26T06:23:34;100335.28;;;1.02;100.00
78719;BME280;68046;53.334;9.538;2024-02-26T06:26:00;100333.63;;;1.03;100.00
78719;BME280;68046;53.334;9.538;2024-02-26T06:28:25;100340.38;;;1.01;100.00
78719;BME280;68046;53.334;9.538;2024-02-26T06:30:51;100336.09;;;1.01;100.00
78719;BME280;68046;53.334;9.538;2024-02-26T06:33:16;100339.81;;;1.06;100.00
78719;BME280;68046;53.334;9.538;2024-02-26T06:35:43;100334.97;;;1.12;100.00
78719;BME280;68046;53.334;9.538;2024-02-26T06:38:09;100334.31;;;1.17;100.00
78719;BME280;68046;53.334;9.538;2024-02-26T06:40:34;100339.03;;;1.24;100.00
78719;BME280;68046;53.334;9.538;2024-02-26T06:43:00;100353.28;;;1.17;100.00
78719;BME280;68046;53.334;9.538;2024-02-26T06:45:25;100346.78;;;1.24;100.00
78719;BME280;68046;53.334;9.538;2024-02-26T06:47:50;100344.72;;;1.34;100.00
78719;BME280;68046;53.334;9.538;2024-02-26T06:50:16;100353.50;;;1.38;100.00
78719;BME280;68046;53.334;9.538;2024-02-26T06:52:44;100352.00;;;1.25;100.00
78719;BME280;68046;53.334;9.538;2024-02-26T06:55:09;100361.59;;;1.28;100.00
78719;BME280;68046;53.334;9.538;2024-02-26T06:57:35;100357.97;;;1.24;100.00
78719;BME280;68046;53.334;9.538;2024-02-26T07:00:00;100360.56;;;1.24;100.00
78719;BME280;68046;53.334;9.538;2024-02-26T07:02:26;100362.34;;;1.25;100.00
78719;BME280;68046;53.334;9.538;2024-02-26T07:04:51;100371.06;;;1.27;100.00
78719;BME280;68046;53.334;9.538;2024-02-26T07:07:17;100378.16;;;1.31;100.00
78719;BME280;68046;53.334;9.538;2024-02-26T07:09:44;100366.28;;;1.35;100.00
78719;BME280;68046;53.334;9.538;2024-02-26T07:12:09;100380.84;;;1.33;100.00
78719;BME280;68046;53.334;9.538;2024-02-26T07:14:35;100378.41;;;1.36;100.00
78719;BME280;68046;53.334;9.538;2024-02-26T07:17:00;100378.47;;;1.37;100.00
78719;BME280;68046;53.334;9.538;2024-02-26T07:19:26;100383.78;;;1.41;100.00
78719;BME280;68046;53.334;9.538;2024-02-26T07:21:51;100386.63;;;1.45;100.00
78719;BME280;68046;53.334;9.538;2024-02-26T07:24:17;100393.00;;;1.52;100.00
78719;BME280;68046;53.334;9.538;2024-02-26T07:26:43;100387.03;;;1.53;100.00
78719;BME280;68046;53.334;9.538;2024-02-26T07:29:09;100399.22;;;1.55;100.00
78719;BME280;68046;53.334;9.538;2024-02-26T07:31:34;100398.66;;;1.61;100.00
78719;BME280;68046;53.334;9.538;2024-02-26T07:34:00;100402.22;;;1.63;100.00
78719;BME280;68046;53.334;9.538;2024-02-26T07:36:25;100400.09;;;1.56;100.00
78719;BME280;68046;53.334;9.538;2024-02-26T07:38:51;100406.81;;;1.52;100.00
78719;BME280;68046;53.334;9.538;2024-02-26T07:41:16;100411.16;;;1.53;100.00
78719;BME280;68046;53.334;9.538;2024-02-26T07:43:43;100408.66;;;1.55;100.00
78719;BME280;68046;53.334;9.538;2024-02-26T07:46:11;100407.06;;;1.57;100.00
78719;BME280;68046;53.334;9.538;2024-02-26T07:48:36;100412.00;;;1.69;100.00
78719;BME280;68046;53.334;9.538;2024-02-26T07:51:02;100412.72;;;1.66;100.00
78719;BME280;68046;53.334;9.538;2024-02-26T07:53:28;100420.63;;;1.69;100.00
78719;BME280;68046;53.334;9.538;2024-02-26T07:55:53;100418.03;;;1.69;100.00
78719;BME280;68046;53.334;9.538;2024-02-26T07:58:19;100423.44;;;1.74;100.00
78719;BME280;68046;53.334;9.538;2024-02-26T08:00:45;100428.84;;;1.78;100.00
78719;BME280;68046;53.334;9.538;2024-02-26T08:03:11;100427.72;;;1.73;100.00
78719;BME280;68046;53.334;9.538;2024-02-26T08:05:36;100432.22;;;1.77;100.00
78719;BME280;68046;53.334;9.538;2024-02-26T08:08:02;100437.56;;;1.80;100.00
78719;BME280;68046;53.334;9.538;2024-02-26T08:10:27;100437.25;;;1.74;100.00
78719;BME280;68046;53.334;9.538;2024-02-26T08:12:53;100442.56;;;1.77;100.00
78719;BME280;68046;53.334;9.538;2024-02-26T08:15:18;100442.16;;;1.86;100.00
78719;BME280;68046;53.334;9.538;2024-02-26T08:17:45;100438.69;;;1.86;100.00
78719;BME280;68046;53.334;9.538;2024-02-26T08:20:11;100444.84;;;1.88;100.00
78719;BME280;68046;53.334;9.538;2024-02-26T08:22:36;100447.31;;;1.86;100.00
78719;BME280;68046;53.334;9.538;2024-02-26T08:25:02;100455.50;;;1.94;100.00
78719;BME280;68046;53.334;9.538;2024-02-26T08:27:28;100445.97;;;1.93;100.00
78719;BME280;68046;53.334;9.538;2024-02-26T08:29:53;100449.66;;;1.98;100.00
78719;BME280;68046;53.334;9.538;2024-02-26T08:32:19;100455.44;;;2.10;100.00
78719;BME280;68046;53.334;9.538;2024-02-26T08:34:46;100452.72;;;2.07;100.00
78719;BME280;68046;53.334;9.538;2024-02-26T08:37:11;100453.53;;;2.06;100.00
78719;BME280;68046;53.334;9.538;2024-02-26T08:39:37;100464.03;;;2.09;100.00
78719;BME280;68046;53.334;9.538;2024-02-26T08:42:02;100459.16;;;2.15;100.00
78719;BME280;68046;53.334;9.538;2024-02-26T08:44:28;100462.78;;;2.19;100.00
78719;BME280;68046;53.334;9.538;2024-02-26T08:46:53;100469.16;;;2.25;100.00
78719;BME280;68046;53.334;9.538;2024-02-26T08:49:19;100466.88;;;2.32;100.00
78719;BME280;68046;53.334;9.538;2024-02-26T08:51:46;100459.25;;;2.35;100.00
78719;BME280;68046;53.334;9.538;2024-02-26T08:54:11;100462.03;;;2.38;100.00
78719;BME280;68046;53.334;9.538;2024-02-26T08:56:37;100463.84;;;2.40;100.00
78719;BME280;68046;53.334;9.538;2024-02-26T08:59:02;100471.88;;;2.45;100.00
78719;BME280;68046;53.334;9.538;2024-02-26T09:01:28;100472.16;;;2.51;100.00
78719;BME280;68046;53.334;9.538;2024-02-26T09:03:53;100472.31;;;2.54;100.00
78719;BME280;68046;53.334;9.538;2024-02-26T09:06:19;100467.19;;;2.56;100.00
78719;BME280;68046;53.334;9.538;2024-02-26T09:08:46;100471.00;;;2.62;100.00
78719;BME280;68046;53.334;9.538;2024-02-26T09:11:11;100475.50;;;2.66;100.00
78719;BME280;68046;53.334;9.538;2024-02-26T09:13:37;100473.94;;;2.70;100.00
78719;BME280;68046;53.334;9.538;2024-02-26T09:16:02;100477.56;;;2.73;100.00
78719;BME280;68046;53.334;9.538;2024-02-26T09:18:28;100475.38;;;2.81;100.00
78719;BME280;68046;53.334;9.538;2024-02-26T09:20:53;100473.81;;;2.85;100.00
78719;BME280;68046;53.334;9.538;2024-02-26T09:23:19;100481.66;;;2.86;100.00
78719;BME280;68046;53.334;9.538;2024-02-26T09:25:46;100487.03;;;2.91;100.00
78719;BME280;68046;53.334;9.538;2024-02-26T09:28:12;100479.41;;;2.94;100.00
78719;BME280;68046;53.334;9.538;2024-02-26T09:30:37;100481.38;;;2.98;100.00
78719;BME280;68046;53.334;9.538;2024-02-26T09:33:03;100482.41;;;3.02;100.00
78719;BME280;68046;53.334;9.538;2024-02-26T09:35:28;100480.00;;;3.06;100.00
78719;BME280;68046;53.334;9.538;2024-02-26T09:37:54;100477.56;;;3.09;100.00
78719;BME280;68046;53.334;9.538;2024-02-26T09:40:19;100486.53;;;3.16;100.00
78719;BME280;68046;53.334;9.538;2024-02-26T09:42:46;100487.56;;;3.19;100.00
78719;BME280;68046;53.334;9.538;2024-02-26T09:45:17;100493.63;;;3.20;100.00
78719;BME280;68046;53.334;9.538;2024-02-26T09:47:44;100487.69;;;3.23;100.00
78719;BME280;68046;53.334;9.538;2024-02-26T09:50:11;100493.97;;;3.28;100.00
78719;BME280;68046;53.334;9.538;2024-02-26T09:52:38;100486.94;;;3.43;100.00
78719;BME280;68046;53.334;9.538;2024-02-26T09:55:04;100491.28;;;3.44;100.00
78719;BME280;68046;53.334;9.538;2024-02-26T09:57:29;100500.16;;;3.49;100.00
78719;BME280;68046;53.334;9.538;2024-02-26T09:59:59;100496.78;;;3.52;100.00
78719;BME280;68046;53.334;9.538;2024-02-26T10:02:25;100508.38;;;3.58;100.00
78719;BME280;68046;53.334;9.538;2024-02-26T10:04:51;100508.22;;;3.75;100.00
78719;BME280;68046;53.334;9.538;2024-02-26T10:07:16;100507.41;;;3.76;100.00
78719;BME280;68046;53.334;9.538;2024-02-26T10:09:42;100510.22;;;3.80;100.00
78719;BME280;68046;53.334;9.538;2024-02-26T10:12:10;100509.13;;;3.95;100.00
78719;BME280;68046;53.334;9.538;2024-02-26T10:14:36;100512.53;;;3.94;100.00
78719;BME280;68046;53.334;9.538;2024-02-26T10:17:07;100525.63;;;3.97;100.00
78719;BME280;68046;53.334;9.538;2024-02-26T10:19:32;100529.28;;;4.00;100.00
78719;BME280;68046;53.334;9.538;2024-02-26T10:21:59;100528.38;;;4.19;100.00
78719;BME280;68046;53.334;9.538;2024-02-26T10:24:25;100529.94;;;4.16;100.00
78719;BME280;68046;53.334;9.538;2024-02-26T10:26:50;100533.34;;;4.15;100.00
78719;BME280;68046;53.334;9.538;2024-02-26T10:29:17;100532.31;;;4.30;100.00
78719;BME280;68046;53.334;9.538;2024-02-26T10:31:43;100525.94;;;4.43;100.00
78719;BME280;68046;53.334;9.538;2024-02-26T10:34:10;100526.63;;;4.60;100.00
78719;BME280;68046;53.334;9.538;2024-02-26T10:36:36;100526.97;;;4.68;100.00
78719;BME280;68046;53.334;9.538;2024-02-26T10:39:01;100528.31;;;4.79;100.00
78719;BME280;68046;53.334;9.538;2024-02-26T10:41:27;100528.69;;;4.88;100.00
78719;BME280;68046;53.334;9.538;2024-02-26T10:43:54;100528.81;;;4.91;100.00
78719;BME280;68046;53.334;9.538;2024-02-26T10:46:19;100533.66;;;5.04;100.00
78719;BME280;68046;53.334;9.538;2024-02-26T10:48:50;100532.63;;;5.22;100.00
78719;BME280;68046;53.334;9.538;2024-02-26T10:51:18;100539.72;;;5.26;100.00
78719;BME280;68046;53.334;9.538;2024-02-26T10:53:47;100540.25;;;5.40;100.00
78719;BME280;68046;53.334;9.538;2024-02-26T10:56:15;100545.06;;;5.52;100.00
78719;BME280;68046;53.334;9.538;2024-02-26T10:58:44;100542.81;;;5.61;100.00
78719;BME280;68046;53.334;9.538;2024-02-26T11:01:11;100537.50;;;5.58;100.00
78719;BME280;68046;53.334;9.538;2024-02-26T11:03:38;100540.38;;;5.65;100.00
78719;BME280;68046;53.334;9.538;2024-02-26T11:06:04;100550.13;;;5.71;100.00
78719;BME280;68046;53.334;9.538;2024-02-26T11:08:31;100549.09;;;5.66;100.00
78719;BME280;68046;53.334;9.538;2024-02-26T11:10:57;100540.66;;;5.73;100.00
78719;BME280;68046;53.334;9.538;2024-02-26T11:13:27;100537.00;;;5.68;100.00
78719;BME280;68046;53.334;9.538;2024-02-26T11:15:54;100547.13;;;5.60;100.00
78719;BME280;68046;53.334;9.538;2024-02-26T11:18:20;100538.50;;;5.61;100.00
78719;BME280;68046;53.334;9.538;2024-02-26T11:20:48;100542.69;;;5.58;100.00
78719;BME280;68046;53.334;9.538;2024-02-26T11:23:14;100540.25;;;5.62;100.00
78719;BME280;68046;53.334;9.538;2024-02-26T11:25:41;100555.09;;;5.65;100.00
78719;BME280;68046;53.334;9.538;2024-02-26T11:28:10;100552.59;;;5.68;100.00
78719;BME280;68046;53.334;9.538;2024-02-26T11:30:39;100547.94;;;5.59;100.00
78719;BME280;68046;53.334;9.538;2024-02-26T11:33:08;100546.78;;;5.51;100.00
78719;BME280;68046;53.334;9.538;2024-02-26T11:35:33;100549.13;;;5.67;100.00
78719;BME280;68046;53.334;9.538;2024-02-26T11:37:59;100554.94;;;5.60;100.00
78719;BME280;68046;53.334;9.538;2024-02-26T11:40:25;100558.66;;;5.67;100.00
78719;BME280;68046;53.334;9.538;2024-02-26T11:42:53;100558.88;;;5.73;100.00
78719;BME280;68046;53.334;9.538;2024-02-26T11:45:52;100555.78;;;5.83;100.00
78719;BME280;68046;53.334;9.538;2024-02-26T11:48:22;100563.16;;;5.93;100.00
78719;BME280;68046;53.334;9.538;2024-02-26T11:50:49;100563.72;;;5.86;100.00
78719;BME280;68046;53.334;9.538;2024-02-26T11:53:22;100566.09;;;5.80;100.00
78719;BME280;68046;53.334;9.538;2024-02-26T11:55:48;100568.09;;;5.87;100.00
78719;BME280;68046;53.334;9.538;2024-02-26T11:58:14;100569.03;;;5.89;100.00
78719;BME280;68046;53.334;9.538;2024-02-26T12:00:40;100567.75;;;6.01;100.00
78719;BME280;68046;53.334;9.538;2024-02-26T12:03:06;100570.38;;;6.01;100.00
78719;BME280;68046;53.334;9.538;2024-02-26T12:05:33;100566.91;;;6.02;100.00
78719;BME280;68046;53.334;9.538;2024-02-26T12:08:00;100572.28;;;6.05;100.00
78719;BME280;68046;53.334;9.538;2024-02-26T12:10:27;100563.63;;;6.06;100.00
78719;BME280;68046;53.334;9.538;2024-02-26T12:12:53;100571.44;;;6.06;100.00
78719;BME280;68046;53.334;9.538;2024-02-26T12:15:22;100578.03;;;6.20;100.00
78719;BME280;68046;53.334;9.538;2024-02-26T12:17:48;100580.56;;;6.18;100.00
78719;BME280;68046;53.334;9.538;2024-02-26T12:20:14;100590.13;;;6.19;100.00
78719;BME280;68046;53.334;9.538;2024-02-26T12:22:45;100591.88;;;6.19;100.00
78719;BME280;68046;53.334;9.538;2024-02-26T12:25:10;100594.53;;;6.21;100.00
78719;BME280;68046;53.334;9.538;2024-02-26T12:27:36;100593.16;;;6.30;100.00
78719;BME280;68046;53.334;9.538;2024-02-26T12:30:02;100603.69;;;6.33;100.00
78719;BME280;68046;53.334;9.538;2024-02-26T12:32:29;100605.44;;;6.34;100.00
78719;BME280;68046;53.334;9.538;2024-02-26T12:34:55;100602.91;;;6.36;100.00
78719;BME280;68046;53.334;9.538;2024-02-26T12:37:22;100612.59;;;6.40;100.00
78719;BME280;68046;53.334;9.538;2024-02-26T12:39:47;100608.16;;;6.37;100.00
78719;BME280;68046;53.334;9.538;2024-02-26T12:42:14;100610.28;;;6.48;100.00
78719;BME280;68046;53.334;9.538;2024-02-26T12:44:39;100610.72;;;6.60;100.00